sensor_id;sensor_type;location;lat;lon;timestamp;P1;durP1;ratioP1;P2;durP2;ratioP2
37309;SDS011;23195;47.744;7.358;2022-11-15T06:41:04;8.43;;;6.23;;
37309;SDS011;23195;47.744;7.358;2022-11-15T06:43:31;8.93;;;6.33;;
37309;SDS011;23195;47.744;7.358;2022-11-15T06:46:00;9.97;;;6.50;;
37309;SDS011;23195;47.744;7.358;2022-11-15T06:48:27;11.47;;;6.70;;
37309;SDS011;23195;47.744;7.358;2022-11-15T06:50:55;7.80;;;6.10;;
37309;SDS011;23195;47.744;7.358;2022-11-15T06:53:22;8.33;;;6.50;;
37309;SDS011;23195;47.744;7.358;2022-11-15T06:55:50;9.27;;;6.33;;
37309;SDS011;23195;47.744;7.358;2022-11-15T06:58:36;10.07;;;6.50;;
37309;SDS011;23195;47.744;7.358;2022-11-15T07:19:16;11.53;;;7.20;;
37309;SDS011;23195;47.744;7.358;2022-11-15T07:22:25;10.17;;;7.73;;
37309;SDS011;23195;47.744;7.358;2022-11-15T07:24:51;9.77;;;7.10;;
37309;SDS011;23195;47.744;7.358;2022-11-15T07:27:17;9.13;;;7.77;;
37309;SDS011;23195;47.744;7.358;2022-11-15T07:29:42;10.90;;;6.97;;
37309;SDS011;23195;47.744;7.358;2022-11-15T07:32:08;14.07;;;7.40;;
37309;SDS011;23195;47.744;7.358;2022-11-15T07:34:34;10.87;;;7.40;;
37309;SDS011;23195;47.744;7.358;2022-11-15T07:37:00;10.53;;;7.53;;
37309;SDS011;23195;47.744;7.358;2022-11-15T07:39:26;10.63;;;7.10;;
37309;SDS011;23195;47.744;7.358;2022-11-15T07:41:52;10.43;;;7.73;;
37309;SDS011;23195;47.744;7.358;2022-11-15T07:44:37;11.00;;;7.53;;
37309;SDS011;23195;47.744;7.358;2022-11-15T07:47:03;9.97;;;7.53;;
37309;SDS011;23195;47.744;7.358;2022-11-15T07:49:29;15.53;;;8.57;;
37309;SDS011;23195;47.744;7.358;2022-11-15T07:52:03;12.17;;;8.00;;
37309;SDS011;23195;47.744;7.358;2022-11-15T07:54:29;12.97;;;7.67;;
37309;SDS011;23195;47.744;7.358;2022-11-15T07:56:56;11.93;;;7.77;;
37309;SDS011;23195;47.744;7.358;2022-11-15T07:59:22;10.27;;;7.47;;
37309;SDS011;23195;47.744;7.358;2022-11-15T08:01:47;11.10;;;7.50;;
37309;SDS011;23195;47.744;7.358;2022-11-15T08:04:13;12.33;;;8.10;;
37309;SDS011;23195;47.744;7.358;2022-11-15T08:06:39;10.77;;;7.60;;
37309;SDS011;23195;47.744;7.358;2022-11-15T08:09:05;12.10;;;7.40;;
37309;SDS011;23195;47.744;7.358;2022-11-15T08:11:31;12.37;;;8.40;;
37309;SDS011;23195;47.744;7.358;2022-11-15T08:13:58;11.77;;;8.17;;
37309;SDS011;23195;47.744;7.358;2022-11-15T08:16:24;12.60;;;8.23;;
37309;SDS011;23195;47.744;7.358;2022-11-15T08:18:49;12.97;;;7.73;;
37309;SDS011;23195;47.744;7.358;2022-11-15T08:21:18;8.87;;;6.80;;
37309;SDS011;23195;47.744;7.358;2022-11-15T08:23:45;10.33;;;6.87;;
37309;SDS011;23195;47.744;7.358;2022-11-15T08:26:11;11.47;;;6.97;;
37309;SDS011;23195;47.744;7.358;2022-11-15T08:28:37;10.83;;;7.20;;
37309;SDS011;23195;47.744;7.358;2022-11-15T08:31:03;8.17;;;6.93;;
37309;SDS011;23195;47.744;7.358;2022-11-15T08:33:29;11.57;;;6.83;;
37309;SDS011;23195;47.744;7.358;2022-11-15T08:35:56;11.53;;;7.10;;
37309;SDS011;23195;47.744;7.358;2022-11-15T08:38:23;9.90;;;6.30;;
37309;SDS011;23195;47.744;7.358;2022-11-15T08:40:53;8.63;;;6.37;;
37309;SDS011;23195;47.744;7.358;2022-11-15T08:43:25;10.10;;;6.20;;
37309;SDS011;23195;47.744;7.358;2022-11-15T08:45:50;8.13;;;6.40;;
37309;SDS011;23195;47.744;7.358;2022-11-15T08:48:16;9.97;;;6.60;;
37309;SDS011;23195;47.744;7.358;2022-11-15T08:50:42;9.33;;;6.87;;
37309;SDS011;23195;47.744;7.358;2022-11-15T08:53:08;10.10;;;6.17;;
37309;SDS011;23195;47.744;7.358;2022-11-15T08:55:38;9.60;;;6.73;;
37309;SDS011;23195;47.744;7.358;2022-11-15T08:58:04;8.00;;;6.00;;
37309;SDS011;23195;47.744;7.358;2022-11-15T09:00:30;10.77;;;7.00;;
37309;SDS011;23195;47.744;7.358;2022-11-15T09:02:56;10.37;;;7.13;;
37309;SDS011;23195;47.744;7.358;2022-11-15T09:05:22;9.70;;;6.63;;
37309;SDS011;23195;47.744;7.358;2022-11-15T09:07:52;10.90;;;7.17;;
37309;SDS011;23195;47.744;7.358;2022-11-15T09:10:18;10.23;;;7.60;;
37309;SDS011;23195;47.744;7.358;2022-11-15T09:12:44;11.43;;;7.77;;
37309;SDS011;23195;47.744;7.358;2022-11-15T09:15:13;9.60;;;7.70;;
37309;SDS011;23195;47.744;7.358;2022-11-15T09:17:39;12.87;;;7.63;;
37309;SDS011;23195;47.744;7.358;2022-11-15T09:20:06;12.23;;;8.30;;
37309;SDS011;23195;47.744;7.358;2022-11-15T09:22:32;13.27;;;8.33;;
37309;SDS011;23195;47.744;7.358;2022-11-15T09:24:58;11.80;;;8.07;;
37309;SDS011;23195;47.744;7.358;2022-11-15T09:27:27;11.03;;;8.13;;
37309;SDS011;23195;47.744;7.358;2022-11-15T09:29:54;17.17;;;9.03;;
37309;SDS011;23195;47.744;7.358;2022-11-15T09:32:20;10.30;;;7.70;;
37309;SDS011;23195;47.744;7.358;2022-11-15T09:34:48;10.80;;;8.20;;
37309;SDS011;23195;47.744;7.358;2022-11-15T09:37:14;12.00;;;7.80;;
37309;SDS011;23195;47.744;7.358;2022-11-15T09:39:40;11.83;;;8.70;;
37309;SDS011;23195;47.744;7.358;2022-11-15T09:45:15;13.93;;;9.03;;
37309;SDS011;23195;47.744;7.358;2022-11-15T09:50:34;10.80;;;8.33;;
37309;SDS011;23195;47.744;7.358;2022-11-15T09:53:04;11.00;;;8.00;;
37309;SDS011;23195;47.744;7.358;2022-11-15T09:55:40;11.30;;;9.00;;
37309;SDS011;23195;47.744;7.358;2022-11-15T09:58:34;11.73;;;9.30;;
37309;SDS011;23195;47.744;7.358;2022-11-15T10:01:18;11.57;;;7.97;;
37309;SDS011;23195;47.744;7.358;2022-11-15T10:03:56;15.20;;;8.80;;
37309;SDS011;23195;47.744;7.358;2022-11-15T10:06:27;12.47;;;7.60;;
37309;SDS011;23195;47.744;7.358;2022-11-15T10:08:55;13.90;;;8.20;;
37309;SDS011;23195;47.744;7.358;2022-11-15T10:11:32;10.77;;;8.20;;
37309;SDS011;23195;47.744;7.358;2022-11-15T10:14:14;11.27;;;8.27;;
37309;SDS011;23195;47.744;7.358;2022-11-15T10:19:26;10.27;;;7.40;;
37309;SDS011;23195;47.744;7.358;2022-11-15T10:24:58;10.00;;;7.43;;
37309;SDS011;23195;47.744;7.358;2022-11-15T10:27:33;10.53;;;7.47;;
37309;SDS011;23195;47.744;7.358;2022-11-15T10:30:13;9.90;;;7.10;;
37309;SDS011;23195;47.744;7.358;2022-11-15T10:32:42;8.93;;;6.83;;
37309;SDS011;23195;47.744;7.358;2022-11-15T10:35:28;10.07;;;7.40;;
37309;SDS011;23195;47.744;7.358;2022-11-15T10:38:04;11.33;;;7.40;;
37309;SDS011;23195;47.744;7.358;2022-11-15T10:40:32;12.27;;;8.10;;
37309;SDS011;23195;47.744;7.358;2022-11-15T10:43:10;8.57;;;6.47;;
37309;SDS011;23195;47.744;7.358;2022-11-15T10:45:39;10.73;;;7.30;;
37309;SDS011;23195;47.744;7.358;2022-11-15T10:50:37;9.60;;;6.87;;
37309;SDS011;23195;47.744;7.358;2022-11-15T10:53:10;9.83;;;7.50;;
37309;SDS011;23195;47.744;7.358;2022-11-15T10:55:48;9.70;;;6.57;;
37309;SDS011;23195;47.744;7.358;2022-11-15T11:00:46;9.33;;;6.43;;
37309;SDS011;23195;47.744;7.358;2022-11-15T11:06:23;12.27;;;7.30;;
37309;SDS011;23195;47.744;7.358;2022-11-15T11:08:58;13.50;;;7.90;;
37309;SDS011;23195;47.744;7.358;2022-11-15T11:11:47;8.23;;;6.83;;
37309;SDS011;23195;47.744;7.358;2022-11-15T11:14:25;9.57;;;6.87;;
37309;SDS011;23195;47.744;7.358;2022-11-15T11:19:54;8.93;;;6.97;;
37309;SDS011;23195;47.744;7.358;2022-11-15T11:47:47;13.60;;;6.17;;
37309;SDS011;23195;47.744;7.358;2022-11-15T11:50:42;8.57;;;6.00;;
37309;SDS011;23195;47.744;7.358;2022-11-15T11:53:12;7.27;;;5.53;;
37309;SDS011;23195;47.744;7.358;2022-11-15T11:55:45;7.93;;;5.77;;
37309;SDS011;23195;47.744;7.358;2022-11-15T11:58:17;8.53;;;6.03;;
37309;SDS011;23195;47.744;7.358;2022-11-15T12:00:52;8.17;;;5.90;;
37309;SDS011;23195;47.744;7.358;2022-11-15T12:03:29;8.70;;;5.53;;
37309;SDS011;23195;47.744;7.358;2022-11-15T12:06:02;7.30;;;5.27;;
37309;SDS011;23195;47.744;7.358;2022-11-15T12:08:41;7.53;;;5.60;;
37309;SDS011;23195;47.744;7.358;2022-11-15T12:11:14;9.50;;;5.80;;
37309;SDS011;23195;47.744;7.358;2022-11-15T12:13:49;9.77;;;6.10;;
37309;SDS011;23195;47.744;7.358;2022-11-15T12:16:30;10.33;;;5.90;;
37309;SDS011;23195;47.744;7.358;2022-11-15T12:19:01;9.30;;;5.37;;
37309;SDS011;23195;47.744;7.358;2022-11-15T12:24:28;10.00;;;5.47;;
37309;SDS011;23195;47.744;7.358;2022-11-15T12:30:39;7.10;;;5.47;;
37309;SDS011;23195;47.744;7.358;2022-11-15T12:32:48;7.23;;;5.43;;
37309;SDS011;23195;47.744;7.358;2022-11-15T12:38:03;6.27;;;5.23;;
37309;SDS011;23195;47.744;7.358;2022-11-15T12:40:32;6.97;;;5.23;;
37309;SDS011;23195;47.744;7.358;2022-11-15T12:43:04;7.63;;;5.50;;
37309;SDS011;23195;47.744;7.358;2022-11-15T12:45:50;7.27;;;4.83;;
37309;SDS011;23195;47.744;7.358;2022-11-15T12:58:54;8.00;;;4.77;;
37309;SDS011;23195;47.744;7.358;2022-11-15T13:04:12;7.97;;;5.40;;
37309;SDS011;23195;47.744;7.358;2022-11-15T13:06:49;6.27;;;4.87;;
37309;SDS011;23195;47.744;7.358;2022-11-15T13:11:58;5.90;;;4.70;;
37309;SDS011;23195;47.744;7.358;2022-11-15T13:19:44;6.10;;;4.47;;
37309;SDS011;23195;47.744;7.358;2022-11-15T13:22:12;6.47;;;4.37;;
37309;SDS011;23195;47.744;7.358;2022-11-15T13:25:03;4.50;;;3.77;;
37309;SDS011;23195;47.744;7.358;2022-11-15T13:27:40;7.47;;;4.47;;
37309;SDS011;23195;47.744;7.358;2022-11-15T13:30:12;6.20;;;4.50;;
37309;SDS011;23195;47.744;7.358;2022-11-15T13:32:40;5.43;;;4.53;;
37309;SDS011;23195;47.744;7.358;2022-11-15T13:35:06;5.33;;;4.40;;
37309;SDS011;23195;47.744;7.358;2022-11-15T13:37:40;5.20;;;4.50;;
37309;SDS011;23195;47.744;7.358;2022-11-15T13:40:22;8.07;;;4.40;;
37309;SDS011;23195;47.744;7.358;2022-11-15T13:42:55;6.37;;;4.53;;
37309;SDS011;23195;47.744;7.358;2022-11-15T13:45:21;8.00;;;4.50;;
37309;SDS011;23195;47.744;7.358;2022-11-15T13:47:51;7.07;;;4.20;;
37309;SDS011;23195;47.744;7.358;2022-11-15T13:50:20;6.33;;;4.40;;
37309;SDS011;23195;47.744;7.358;2022-11-15T13:52:50;6.00;;;4.50;;
37309;SDS011;23195;47.744;7.358;2022-11-15T13:55:20;6.40;;;4.03;;
37309;SDS011;23195;47.744;7.358;2022-11-15T13:57:54;5.23;;;4.30;;
37309;SDS011;23195;47.744;7.358;2022-11-15T14:02:49;6.57;;;4.70;;
37309;SDS011;23195;47.744;7.358;2022-11-15T14:05:16;9.67;;;4.90;;
37309;SDS011;23195;47.744;7.358;2022-11-15T14:07:57;5.13;;;4.47;;
37309;SDS011;23195;47.744;7.358;2022-11-15T14:10:36;5.97;;;4.50;;
37309;SDS011;23195;47.744;7.358;2022-11-15T14:14:02;8.07;;;4.70;;
37309;SDS011;23195;47.744;7.358;2022-11-15T14:15:53;5.87;;;4.47;;
37309;SDS011;23195;47.744;7.358;2022-11-15T14:21:08;7.10;;;4.70;;
37309;SDS011;23195;47.744;7.358;2022-11-15T14:23:35;7.37;;;4.60;;
37309;SDS011;23195;47.744;7.358;2022-11-15T14:26:00;4.80;;;4.10;;
37309;SDS011;23195;47.744;7.358;2022-11-15T14:30:52;8.07;;;3.70;;
37309;SDS011;23195;47.744;7.358;2022-11-15T14:33:25;4.97;;;3.77;;
37309;SDS011;23195;47.744;7.358;2022-11-15T14:36:12;6.50;;;3.60;;
37309;SDS011;23195;47.744;7.358;2022-11-15T14:38:41;4.90;;;3.73;;
37309;SDS011;23195;47.744;7.358;2022-11-15T14:41:21;6.30;;;4.20;;
37309;SDS011;23195;47.744;7.358;2022-11-15T14:43:48;4.87;;;3.87;;
37309;SDS011;23195;47.744;7.358;2022-11-15T14:46:15;4.73;;;3.87;;
37309;SDS011;23195;47.744;7.358;2022-11-15T14:48:40;4.50;;;3.87;;
37309;SDS011;23195;47.744;7.358;2022-11-15T14:51:11;6.07;;;4.07;;
37309;SDS011;23195;47.744;7.358;2022-11-15T14:53:38;8.63;;;4.50;;
37309;SDS011;23195;47.744;7.358;2022-11-15T14:56:08;7.70;;;4.43;;
37309;SDS011;23195;47.744;7.358;2022-11-15T14:58:46;5.37;;;4.10;;
37309;SDS011;23195;47.744;7.358;2022-11-15T15:01:23;6.57;;;4.23;;
37309;SDS011;23195;47.744;7.358;2022-11-15T15:03:51;5.70;;;4.73;;
37309;SDS011;23195;47.744;7.358;2022-11-15T15:06:22;6.27;;;4.97;;
37309;SDS011;23195;47.744;7.358;2022-11-15T15:08:48;9.83;;;4.83;;
37309;SDS011;23195;47.744;7.358;2022-11-15T15:11:21;7.57;;;5.13;;
37309;SDS011;23195;47.744;7.358;2022-11-15T15:13:54;8.57;;;5.47;;
37309;SDS011;23195;47.744;7.358;2022-11-15T15:16:25;6.37;;;5.37;;
37309;SDS011;23195;47.744;7.358;2022-11-15T15:18:51;6.27;;;5.27;;
37309;SDS011;23195;47.744;7.358;2022-11-15T15:21:19;9.47;;;5.60;;
37309;SDS011;23195;47.744;7.358;2022-11-15T15:23:47;12.07;;;5.87;;
37309;SDS011;23195;47.744;7.358;2022-11-15T15:26:13;7.40;;;5.40;;
37309;SDS011;23195;47.744;7.358;2022-11-15T15:28:39;8.73;;;5.80;;
37309;SDS011;23195;47.744;7.358;2022-11-15T15:31:05;8.07;;;5.17;;
37309;SDS011;23195;47.744;7.358;2022-11-15T15:33:31;8.07;;;5.30;;
37309;SDS011;23195;47.744;7.358;2022-11-15T15:35:57;7.87;;;4.80;;
37309;SDS011;23195;47.744;7.358;2022-11-15T15:38:24;7.43;;;4.57;;
37309;SDS011;23195;47.744;7.358;2022-11-15T15:40:50;7.57;;;4.93;;
37309;SDS011;23195;47.744;7.358;2022-11-15T15:43:16;5.63;;;4.37;;
37309;SDS011;23195;47.744;7.358;2022-11-15T15:45:42;8.37;;;4.67;;
37309;SDS011;23195;47.744;7.358;2022-11-15T15:48:13;7.23;;;4.40;;
37309;SDS011;23195;47.744;7.358;2022-11-15T15:50:41;7.50;;;4.80;;
37309;SDS011;23195;47.744;7.358;2022-11-15T15:53:10;6.93;;;4.77;;
37309;SDS011;23195;47.744;7.358;2022-11-15T15:55:37;8.87;;;4.67;;
37309;SDS011;23195;47.744;7.358;2022-11-15T15:58:03;6.37;;;4.70;;
37309;SDS011;23195;47.744;7.358;2022-11-15T16:00:29;6.57;;;4.60;;
37309;SDS011;23195;47.744;7.358;2022-11-15T16:02:57;6.93;;;4.80;;
37309;SDS011;23195;47.744;7.358;2022-11-15T16:05:24;9.03;;;4.80;;
37309;SDS011;23195;47.744;7.358;2022-11-15T16:07:50;7.93;;;4.90;;
37309;SDS011;23195;47.744;7.358;2022-11-15T16:10:23;6.83;;;4.57;;
37309;SDS011;23195;47.744;7.358;2022-11-15T16:12:54;6.73;;;5.20;;
37309;SDS011;23195;47.744;7.358;2022-11-15T16:15:22;9.57;;;5.50;;
37309;SDS011;23195;47.744;7.358;2022-11-15T16:17:56;8.07;;;5.40;;
37309;SDS011;23195;47.744;7.358;2022-11-15T16:23:06;7.23;;;5.60;;
37309;SDS011;23195;47.744;7.358;2022-11-15T16:25:35;7.63;;;5.50;;
37309;SDS011;23195;47.744;7.358;2022-11-15T16:28:04;8.73;;;5.83;;
37309;SDS011;23195;47.744;7.358;2022-11-15T16:30:30;6.57;;;5.33;;
37309;SDS011;23195;47.744;7.358;2022-11-15T16:32:56;10.53;;;5.43;;
37309;SDS011;23195;47.744;7.358;2022-11-15T16:35:25;8.57;;;6.03;;
37309;SDS011;23195;47.744;7.358;2022-11-15T16:37:50;8.13;;;6.20;;
37309;SDS011;23195;47.744;7.358;2022-11-15T16:40:31;9.00;;;5.83;;
37309;SDS011;23195;47.744;7.358;2022-11-15T16:46:12;8.43;;;6.13;;
37309;SDS011;23195;47.744;7.358;2022-11-15T16:48:46;8.00;;;5.50;;
37309;SDS011;23195;47.744;7.358;2022-11-15T16:51:30;8.27;;;5.23;;
37309;SDS011;23195;47.744;7.358;2022-11-15T16:54:13;9.83;;;6.07;;
37309;SDS011;23195;47.744;7.358;2022-11-15T16:56:42;6.53;;;5.60;;
37309;SDS011;23195;47.744;7.358;2022-11-15T16:59:10;7.30;;;5.50;;
37309;SDS011;23195;47.744;7.358;2022-11-15T17:01:41;6.23;;;4.93;;
37309;SDS011;23195;47.744;7.358;2022-11-15T17:04:15;6.30;;;4.97;;
37309;SDS011;23195;47.744;7.358;2022-11-15T17:06:42;8.50;;;5.40;;
37309;SDS011;23195;47.744;7.358;2022-11-15T17:09:13;10.80;;;5.57;;
37309;SDS011;23195;47.744;7.358;2022-11-15T17:11:44;7.83;;;4.90;;
37309;SDS011;23195;47.744;7.358;2022-11-15T17:14:11;8.77;;;4.83;;
37309;SDS011;23195;47.744;7.358;2022-11-15T17:16:37;5.47;;;4.63;;
37309;SDS011;23195;47.744;7.358;2022-11-15T17:19:10;6.67;;;4.57;;
37309;SDS011;23195;47.744;7.358;2022-11-15T17:21:41;8.63;;;4.87;;
37309;SDS011;23195;47.744;7.358;2022-11-15T17:24:07;8.70;;;4.37;;
37309;SDS011;23195;47.744;7.358;2022-11-15T17:26:34;7.37;;;5.00;;
37309;SDS011;23195;47.744;7.358;2022-11-15T17:29:00;6.83;;;4.30;;
37309;SDS011;23195;47.744;7.358;2022-11-15T17:31:28;6.40;;;4.70;;
37309;SDS011;23195;47.744;7.358;2022-11-15T17:33:55;7.50;;;4.80;;
37309;SDS011;23195;47.744;7.358;2022-11-15T17:36:21;6.17;;;4.80;;
37309;SDS011;23195;47.744;7.358;2022-11-15T17:38:47;8.30;;;4.70;;
37309;SDS011;23195;47.744;7.358;2022-11-15T17:41:16;8.67;;;4.67;;
37309;SDS011;23195;47.744;7.358;2022-11-15T17:43:42;9.63;;;4.80;;
37309;SDS011;23195;47.744;7.358;2022-11-15T17:46:12;8.43;;;5.20;;
37309;SDS011;23195;47.744;7.358;2022-11-15T17:48:39;9.17;;;4.77;;
37309;SDS011;23195;47.744;7.358;2022-11-15T17:51:06;8.80;;;5.40;;
37309;SDS011;23195;47.744;7.358;2022-11-15T17:53:35;11.97;;;9.60;;
37309;SDS011;23195;47.744;7.358;2022-11-15T17:56:04;7.53;;;4.80;;
37309;SDS011;23195;47.744;7.358;2022-11-15T17:58:32;7.73;;;4.67;;
37309;SDS011;23195;47.744;7.358;2022-11-15T18:01:09;6.63;;;4.80;;
37309;SDS011;23195;47.744;7.358;2022-11-15T18:03:41;7.43;;;5.00;;
37309;SDS011;23195;47.744;7.358;2022-11-15T18:06:07;7.10;;;5.13;;
37309;SDS011;23195;47.744;7.358;2022-11-15T18:08:38;8.13;;;5.13;;
37309;SDS011;23195;47.744;7.358;2022-11-15T18:11:06;8.70;;;4.73;;
37309;SDS011;23195;47.744;7.358;2022-11-15T18:13:32;7.57;;;5.23;;
37309;SDS011;23195;47.744;7.358;2022-11-15T18:15:59;9.37;;;6.20;;
37309;SDS011;23195;47.744;7.358;2022-11-15T18:18:31;8.00;;;5.10;;
37309;SDS011;23195;47.744;7.358;2022-11-15T18:23:38;7.97;;;5.40;;
37309;SDS011;23195;47.744;7.358;2022-11-15T18:26:05;6.37;;;4.97;;
37309;SDS011;23195;47.744;7.358;2022-11-15T18:28:36;7.70;;;4.67;;
37309;SDS011;23195;47.744;7.358;2022-11-15T18:31:10;6.97;;;4.67;;
37309;SDS011;23195;47.744;7.358;2022-11-15T18:33:39;6.40;;;4.57;;
37309;SDS011;23195;47.744;7.358;2022-11-15T18:36:07;7.43;;;4.77;;
37309;SDS011;23195;47.744;7.358;2022-11-15T18:38:38;7.27;;;5.10;;
37309;SDS011;23195;47.744;7.358;2022-11-15T18:41:14;9.37;;;5.37;;
37309;SDS011;23195;47.744;7.358;2022-11-15T18:43:49;8.23;;;5.30;;
37309;SDS011;23195;47.744;7.358;2022-11-15T18:46:17;7.43;;;5.20;;
37309;SDS011;23195;47.744;7.358;2022-11-15T18:48:45;8.10;;;5.40;;
37309;SDS011;23195;47.744;7.358;2022-11-15T18:51:14;8.47;;;6.33;;
37309;SDS011;23195;47.744;7.358;2022-11-15T18:53:43;8.03;;;6.20;;
37309;SDS011;23195;47.744;7.358;2022-11-15T18:56:10;9.13;;;5.60;;
37309;SDS011;23195;47.744;7.358;2022-11-15T18:58:39;8.20;;;5.80;;
37309;SDS011;23195;47.744;7.358;2022-11-15T19:01:14;8.50;;;6.00;;
37309;SDS011;23195;47.744;7.358;2022-11-15T19:03:42;7.70;;;5.30;;
37309;SDS011;23195;47.744;7.358;2022-11-15T19:08:37;7.70;;;5.37;;
37309;SDS011;23195;47.744;7.358;2022-11-15T19:11:04;8.03;;;6.20;;
37309;SDS011;23195;47.744;7.358;2022-11-15T19:13:44;9.03;;;5.93;;
37309;SDS011;23195;47.744;7.358;2022-11-15T19:16:12;8.93;;;5.90;;
37309;SDS011;23195;47.744;7.358;2022-11-15T19:18:39;11.00;;;6.10;;
37309;SDS011;23195;47.744;7.358;2022-11-15T19:21:10;10.80;;;6.70;;
37309;SDS011;23195;47.744;7.358;2022-11-15T19:23:39;8.10;;;5.80;;
37309;SDS011;23195;47.744;7.358;2022-11-15T19:26:09;8.33;;;6.13;;
37309;SDS011;23195;47.744;7.358;2022-11-15T19:28:41;8.47;;;6.03;;
37309;SDS011;23195;47.744;7.358;2022-11-15T19:33:38;9.60;;;6.83;;
37309;SDS011;23195;47.744;7.358;2022-11-15T19:36:10;10.30;;;6.90;;
37309;SDS011;23195;47.744;7.358;2022-11-15T19:38:38;12.50;;;7.73;;
37309;SDS011;23195;47.744;7.358;2022-11-15T19:41:05;10.43;;;7.17;;
37309;SDS011;23195;47.744;7.358;2022-11-15T19:43:32;11.43;;;7.90;;
37309;SDS011;23195;47.744;7.358;2022-11-15T19:45:59;10.07;;;7.30;;
37309;SDS011;23195;47.744;7.358;2022-11-15T19:48:26;10.57;;;7.57;;
37309;SDS011;23195;47.744;7.358;2022-11-15T19:50:53;9.83;;;8.10;;
37309;SDS011;23195;47.744;7.358;2022-11-15T19:53:23;12.90;;;8.40;;
37309;SDS011;23195;47.744;7.358;2022-11-15T19:55:59;11.47;;;7.63;;
37309;SDS011;23195;47.744;7.358;2022-11-15T19:58:26;10.50;;;7.23;;
37309;SDS011;23195;47.744;7.358;2022-11-15T20:01:15;9.87;;;7.63;;
37309;SDS011;23195;47.744;7.358;2022-11-15T20:03:43;13.90;;;8.73;;
37309;SDS011;23195;47.744;7.358;2022-11-15T20:06:11;11.33;;;8.67;;
37309;SDS011;23195;47.744;7.358;2022-11-15T20:08:41;13.73;;;8.43;;
37309;SDS011;23195;47.744;7.358;2022-11-15T20:11:11;12.33;;;9.10;;
37309;SDS011;23195;47.744;7.358;2022-11-15T20:13:38;13.70;;;9.43;;
37309;SDS011;23195;47.744;7.358;2022-11-15T20:16:05;16.67;;;9.30;;
37309;SDS011;23195;47.744;7.358;2022-11-15T20:18:34;11.83;;;9.30;;
37309;SDS011;23195;47.744;7.358;2022-11-15T20:21:00;15.67;;;9.23;;
37309;SDS011;23195;47.744;7.358;2022-11-15T20:23:28;16.23;;;9.43;;
37309;SDS011;23195;47.744;7.358;2022-11-15T20:25:54;12.40;;;9.17;;
37309;SDS011;23195;47.744;7.358;2022-11-15T20:28:22;17.27;;;9.80;;
37309;SDS011;23195;47.744;7.358;2022-11-15T20:30:50;12.07;;;9.80;;
37309;SDS011;23195;47.744;7.358;2022-11-15T20:33:18;14.40;;;9.90;;
37309;SDS011;23195;47.744;7.358;2022-11-15T20:35:44;12.03;;;9.07;;
37309;SDS011;23195;47.744;7.358;2022-11-15T20:38:10;14.57;;;9.60;;
37309;SDS011;23195;47.744;7.358;2022-11-15T20:40:37;16.70;;;10.37;;
37309;SDS011;23195;47.744;7.358;2022-11-15T20:43:03;15.43;;;9.83;;
37309;SDS011;23195;47.744;7.358;2022-11-15T20:45:38;15.97;;;10.60;;
37309;SDS011;23195;47.744;7.358;2022-11-15T20:48:09;17.33;;;10.67;;
37309;SDS011;23195;47.744;7.358;2022-11-15T20:50:38;17.07;;;10.10;;
37309;SDS011;23195;47.744;7.358;2022-11-15T20:53:04;13.43;;;9.63;;
37309;SDS011;23195;47.744;7.358;2022-11-15T20:55:30;16.00;;;9.50;;
37309;SDS011;23195;47.744;7.358;2022-11-15T20:57:56;12.13;;;9.43;;
37309;SDS011;23195;47.744;7.358;2022-11-15T21:00:27;15.70;;;10.57;;
37309;SDS011;23195;47.744;7.358;2022-11-15T21:02:56;17.20;;;10.73;;
37309;SDS011;23195;47.744;7.358;2022-11-15T21:05:22;15.47;;;10.37;;
37309;SDS011;23195;47.744;7.358;2022-11-15T21:07:48;20.07;;;10.73;;
37309;SDS011;23195;47.744;7.358;2022-11-15T21:10:13;19.63;;;11.33;;
37309;SDS011;23195;47.744;7.358;2022-11-15T21:12:58;17.87;;;11.30;;
37309;SDS011;23195;47.744;7.358;2022-11-15T21:15:26;17.63;;;11.30;;
37309;SDS011;23195;47.744;7.358;2022-11-15T21:17:56;16.00;;;10.93;;
37309;SDS011;23195;47.744;7.358;2022-11-15T21:20:22;18.30;;;12.77;;
37309;SDS011;23195;47.744;7.358;2022-11-15T21:22:49;19.80;;;12.50;;
37309;SDS011;23195;47.744;7.358;2022-11-15T21:25:15;19.77;;;12.47;;
37309;SDS011;23195;47.744;7.358;2022-11-15T21:27:45;22.20;;;13.27;;
37309;SDS011;23195;47.744;7.358;2022-11-15T21:30:11;20.97;;;12.80;;
37309;SDS011;23195;47.744;7.358;2022-11-15T21:32:41;23.23;;;12.60;;
37309;SDS011;23195;47.744;7.358;2022-11-15T21:35:09;20.90;;;12.50;;
37309;SDS011;23195;47.744;7.358;2022-11-15T21:37:38;20.03;;;12.80;;
37309;SDS011;23195;47.744;7.358;2022-11-15T21:40:07;21.37;;;13.30;;
37309;SDS011;23195;47.744;7.358;2022-11-15T21:42:35;21.03;;;14.03;;
37309;SDS011;23195;47.744;7.358;2022-11-15T21:45:04;24.70;;;13.53;;
37309;SDS011;23195;47.744;7.358;2022-11-15T21:47:31;20.77;;;13.83;;
37309;SDS011;23195;47.744;7.358;2022-11-15T21:49:57;23.40;;;14.00;;
37309;SDS011;23195;47.744;7.358;2022-11-15T21:52:22;21.40;;;13.77;;
37309;SDS011;23195;47.744;7.358;2022-11-15T21:54:48;20.97;;;13.97;;
37309;SDS011;23195;47.744;7.358;2022-11-15T21:57:19;20.60;;;14.03;;
37309;SDS011;23195;47.744;7.358;2022-11-15T21:59:54;24.03;;;13.73;;
37309;SDS011;23195;47.744;7.358;2022-11-15T22:02:38;22.53;;;14.47;;
37309;SDS011;23195;47.744;7.358;2022-11-15T22:05:09;24.37;;;15.13;;
37309;SDS011;23195;47.744;7.358;2022-11-15T22:07:41;23.80;;;14.73;;
37309;SDS011;23195;47.744;7.358;2022-11-15T22:10:12;21.87;;;14.70;;
37309;SDS011;23195;47.744;7.358;2022-11-15T22:12:41;25.43;;;14.23;;
37309;SDS011;23195;47.744;7.358;2022-11-15T22:15:09;24.83;;;14.97;;
37309;SDS011;23195;47.744;7.358;2022-11-15T22:17:35;27.77;;;15.53;;
37309;SDS011;23195;47.744;7.358;2022-11-15T22:23:00;24.33;;;15.00;;
37309;SDS011;23195;47.744;7.358;2022-11-15T22:28:05;21.80;;;14.30;;
37309;SDS011;23195;47.744;7.358;2022-11-15T22:30:33;20.20;;;13.23;;
37309;SDS011;23195;47.744;7.358;2022-11-15T22:32:59;22.83;;;13.80;;
37309;SDS011;23195;47.744;7.358;2022-11-15T22:35:25;20.23;;;12.90;;
37309;SDS011;23195;47.744;7.358;2022-11-15T22:37:51;20.20;;;12.97;;
37309;SDS011;23195;47.744;7.358;2022-11-15T22:40:17;19.77;;;13.10;;
37309;SDS011;23195;47.744;7.358;2022-11-15T22:42:42;23.53;;;13.43;;
37309;SDS011;23195;47.744;7.358;2022-11-15T22:45:08;18.80;;;12.63;;
37309;SDS011;23195;47.744;7.358;2022-11-15T22:47:34;22.10;;;13.30;;
37309;SDS011;23195;47.744;7.358;2022-11-15T22:50:00;20.23;;;12.27;;
37309;SDS011;23195;47.744;7.358;2022-11-15T22:52:25;19.80;;;12.10;;
37309;SDS011;23195;47.744;7.358;2022-11-15T22:54:51;19.23;;;12.53;;
37309;SDS011;23195;47.744;7.358;2022-11-15T22:57:17;23.00;;;12.50;;
37309;SDS011;23195;47.744;7.358;2022-11-15T22:59:43;21.10;;;12.43;;
37309;SDS011;23195;47.744;7.358;2022-11-15T23:02:08;20.30;;;11.70;;
37309;SDS011;23195;47.744;7.358;2022-11-15T23:04:34;17.67;;;10.60;;
37309;SDS011;23195;47.744;7.358;2022-11-15T23:07:00;19.93;;;11.40;;
37309;SDS011;23195;47.744;7.358;2022-11-15T23:09:26;20.50;;;11.13;;
37309;SDS011;23195;47.744;7.358;2022-11-15T23:11:51;20.00;;;11.60;;
37309;SDS011;23195;47.744;7.358;2022-11-15T23:14:35;17.30;;;11.83;;
37309;SDS011;23195;47.744;7.358;2022-11-15T23:17:01;19.10;;;12.43;;
37309;SDS011;23195;47.744;7.358;2022-11-15T23:19:27;19.93;;;12.17;;
37309;SDS011;23195;47.744;7.358;2022-11-15T23:21:53;21.83;;;12.93;;
37309;SDS011;23195;47.744;7.358;2022-11-15T23:24:39;20.33;;;12.77;;
37309;SDS011;23195;47.744;7.358;2022-11-15T23:27:06;19.33;;;11.87;;
37309;SDS011;23195;47.744;7.358;2022-11-15T23:29:32;19.60;;;12.17;;
37309;SDS011;23195;47.744;7.358;2022-11-15T23:32:20;18.50;;;11.63;;
37309;SDS011;23195;47.744;7.358;2022-11-15T23:35:04;18.80;;;12.30;;
37309;SDS011;23195;47.744;7.358;2022-11-15T23:37:30;19.27;;;12.03;;